CST,Max TemperatureF,Mean TemperatureF,Min TemperatureF,Max Dew PointF,MeanDew PointF,Min DewpointF,Max Humidity, Mean Humidity, Min Humidity, Max Sea Level PressureIn, Mean Sea Level PressureIn, Min Sea Level PressureIn, Max VisibilityMiles, Mean VisibilityMiles, Min VisibilityMiles, Max Wind SpeedMPH, Mean Wind SpeedMPH, Max Gust SpeedMPH,PrecipitationIn, CloudCover, Events, WindDirDegrees
2013-2-1,24,10,-5,14,0,-11,82,71,59,30.48,30.34,30.13,10,10,10,21,11,25,0.00,5,,222
2013-2-2,26,24,21,23,18,11,88,74,59,30.22,30.12,30.05,10,8,1,20,10,25,0.05,6,Snow,271
2013-2-3,33,26,18,23,17,12,88,68,47,30.25,30.09,29.86,10,10,10,29,13,36,0.00,0,,243
2013-2-4,33,27,20,25,19,16,91,80,68,30.01,29.93,29.79,10,10,9,20,9,26,0.00,3,,359
2013-2-5,45,33,21,32,25,17,92,77,62,30.12,29.98,29.89,10,10,7,21,9,25,0.00,2,,256
2013-2-6,49,38,26,37,30,24,92,74,56,30.13,30.03,29.92,10,10,7,16,9,22,0.04,3,Rain,152
2013-2-7,45,37,29,39,34,25,100,91,82,30.22,29.98,29.87,10,6,2,24,10,28,0.44,8,Rain-Thunderstorm,354
2013-2-8,29,27,25,25,23,22,92,85,78,30.38,30.31,30.20,10,10,8,17,7,22,0.00,8,,66
2013-2-9,41,34,27,32,28,24,92,78,64,30.27,30.06,29.82,10,8,4,21,12,26,0.02,6,Rain,147
2013-2-10,53,43,32,45,34,21,92,73,53,29.80,29.55,29.33,10,7,1,39,22,49,0.09,8,Rain,185
2013-2-11,40,32,24,25,22,19,88,71,54,30.17,30.01,29.72,10,10,9,33,17,41,0.00,4,,289
2013-2-12,46,33,19,25,22,17,92,66,40,30.18,30.06,29.92,10,9,6,14,7,17,0.00,0,,230
2013-2-13,52,38,24,28,23,20,88,59,30,29.90,29.82,29.75,10,10,10,16,9,20,0.00,0,,257
2013-2-14,47,37,27,29,26,15,82,66,49,30.19,29.96,29.76,10,10,10,24,14,30,0.00,4,,310
2013-2-15,31,24,16,15,11,8,80,61,42,30.36,30.32,30.22,10,10,10,21,10,28,0.00,2,,328
2013-2-16,35,24,12,17,13,9,88,63,38,30.33,30.23,30.11,10,10,10,14,6,20,0.00,3,,247
2013-2-17,48,37,25,28,23,18,75,57,39,30.10,29.92,29.68,10,10,10,21,12,26,0.00,1,,149
2013-2-18,43,31,19,33,24,11,76,66,55,30.01,29.73,29.56,10,10,10,32,16,41,T,4,Rain,307
2013-2-19,27,19,10,10,3,0,74,53,32,30.40,30.22,30.02,10,10,10,29,19,37,0.00,2,,310
2013-2-20,23,13,3,8,3,-3,86,65,44,30.47,30.37,30.31,10,10,10,14,7,17,0.00,3,,58
2013-2-21,24,21,18,21,17,8,96,77,57,30.32,29.96,29.77,10,3,0,23,12,32,0.83,7,Fog-Snow,73
2013-2-22,25,21,17,21,17,12,96,82,68,30.06,29.90,29.74,10,7,2,20,10,24,0.01,6,Snow,280
2013-2-23,30,18,7,18,12,4,92,76,59,30.05,30.00,29.96,10,9,5,12,7,,0.00,1,,215
2013-2-24,39,27,15,24,19,12,88,69,50,30.10,30.04,29.99,10,9,5,10,5,12,0.00,1,,141
2013-2-25,38,32,25,28,25,20,82,73,64,30.07,29.99,29.83,10,9,7,18,10,25,0.00,4,,43
2013-2-26,34,32,29,28,27,26,92,84,75,29.81,29.69,29.60,9,2,0,29,17,38,0.49,8,Fog-Snow,9
2013-2-27,32,29,26,27,23,21,92,82,72,30.01,29.85,29.77,10,4,1,24,15,30,0.15,8,Snow,323
2013-2-28,32,28,24,22,21,19,81,72,63,30.19,30.12,29.98,10,10,10,21,13,25,0.00,8,,329